Time;durP1;ratioP1;P1;durP2;ratioP2;P2;SDS_P1;SDS_P2;PMS_P1;PMS_P2;Temp;Humidity;BMP_temperature;BMP_pressure;BME280_temperature;BME280_humidity;BME280_pressure;Samples;Min_cycle;Max_cycle;Signal;HPM_P1;HPM_P2
2020/12/12 00:01:10;;;;;;;19.17;10.97;;;;;;;-2.40;98.62;100104.31;1778381;79;21144;-78
2020/12/12 00:03:38;;;;;;;21.17;12.93;;;;;;;-2.37;98.45;100105.70;1730287;80;21045;-80
2020/12/12 00:06:06;;;;;;;24.43;15.20;;;;;;;-2.36;98.24;100103.62;1788814;79;21101;-79
2020/12/12 00:08:34;;;;;;;31.37;15.70;;;;;;;-2.32;98.63;100107.53;1789295;79;21649;-79
2020/12/12 00:11:01;;;;;;;23.27;13.53;;;;;;;-2.24;98.39;100106.17;1789173;78;21363;-79
2020/12/12 00:13:30;;;;;;;23.10;14.10;;;;;;;-2.18;97.97;100107.67;1789475;79;21491;-79
2020/12/12 00:15:58;;;;;;;22.83;14.03;;;;;;;-2.17;97.89;100105.18;1760514;80;21229;-78
2020/12/12 00:18:25;;;;;;;18.93;12.40;;;;;;;-2.15;97.50;100103.98;1786325;79;21168;-79
2020/12/12 00:20:54;;;;;;;23.00;13.93;;;;;;;-2.19;97.75;100103.38;1786721;79;21187;-79
2020/12/12 00:23:23;;;;;;;24.60;13.93;;;;;;;-2.21;97.98;100105.02;1736997;79;21267;-80
2020/12/12 00:25:51;;;;;;;22.43;14.03;;;;;;;-2.21;98.22;100097.42;1782135;80;21087;-79
2020/12/12 00:28:20;;;;;;;25.07;14.70;;;;;;;-2.20;98.24;100098.72;1785020;80;21041;-79
2020/12/12 00:30:48;;;;;;;20.63;14.87;;;;;;;-2.18;98.14;100089.93;1783055;78;21163;-78
2020/12/12 00:33:16;;;;;;;22.03;15.23;;;;;;;-2.17;97.97;100085.31;1789282;79;21093;-78
2020/12/12 00:35:44;;;;;;;23.07;13.90;;;;;;;-2.19;97.95;100086.91;1789114;80;21209;-77
2020/12/12 00:38:12;;;;;;;22.67;13.50;;;;;;;-2.18;98.14;100081.92;1784154;80;20955;-78
2020/12/12 00:40:40;;;;;;;25.17;15.23;;;;;;;-2.16;98.11;100074.36;1789073;80;21040;-79
2020/12/12 00:43:08;;;;;;;26.70;15.17;;;;;;;-2.12;98.12;100069.48;1757153;80;21090;-78
2020/12/12 00:45:35;;;;;;;21.50;13.87;;;;;;;-2.07;98.00;100073.84;1789257;78;21172;-80
2020/12/12 00:48:04;;;;;;;26.07;15.60;;;;;;;-2.01;97.67;100071.53;1789302;80;21341;-78
2020/12/12 00:50:33;;;;;;;21.17;13.13;;;;;;;-2.00;97.51;100069.45;1802212;78;21613;-80
2020/12/12 00:53:01;;;;;;;26.27;15.47;;;;;;;-1.96;97.52;100054.42;1797586;78;21002;-80
2020/12/12 00:55:29;;;;;;;21.83;14.40;;;;;;;-1.93;97.17;100070.12;1739106;79;21159;-79
2020/12/12 00:57:58;;;;;;;22.13;13.83;;;;;;;-1.89;97.16;100072.84;1797782;79;21131;-79
2020/12/12 01:00:25;;;;;;;23.03;13.47;;;;;;;-1.87;96.39;100067.80;1755289;80;21297;-77
2020/12/12 01:02:53;;;;;;;21.43;14.23;;;;;;;-1.86;96.34;100066.12;1796882;80;21164;-77
2020/12/12 01:05:22;;;;;;;26.67;14.63;;;;;;;-1.84;96.31;100064.52;1797890;79;21038;-78
2020/12/12 01:07:49;;;;;;;24.20;14.13;;;;;;;-1.83;96.18;100066.23;1797238;79;21119;-79
2020/12/12 01:10:17;;;;;;;22.67;14.57;;;;;;;-1.83;96.40;100067.50;1766960;80;21116;-78
2020/12/12 01:12:44;;;;;;;25.27;15.37;;;;;;;-1.83;96.02;100067.13;1797099;78;21183;-78
2020/12/12 01:15:13;;;;;;;24.07;14.60;;;;;;;-1.80;96.28;100065.08;1796583;78;21093;-78
2020/12/12 01:17:40;;;;;;;18.87;13.13;;;;;;;-1.79;95.97;100063.88;1797622;80;21113;-78
2020/12/12 01:20:08;;;;;;;23.60;14.33;;;;;;;-1.81;95.91;100057.02;1796363;80;21136;-78
2020/12/12 01:22:36;;;;;;;26.50;15.73;;;;;;;-1.82;96.22;100057.84;1796898;79;21679;-78
2020/12/12 01:25:04;;;;;;;27.73;16.40;;;;;;;-1.77;96.41;100066.05;1797874;79;21363;-79
2020/12/12 01:27:32;;;;;;;24.77;14.20;;;;;;;-1.70;95.98;100058.24;1799400;79;21105;-78
2020/12/12 01:30:00;;;;;;;21.53;12.87;;;;;;;-1.68;95.70;100065.11;1768379;78;22924;-78
2020/12/12 01:32:28;;;;;;;23.40;13.50;;;;;;;-1.68;95.31;100062.98;1795382;80;21197;-79
2020/12/12 01:34:56;;;;;;;28.70;14.90;;;;;;;-1.69;95.53;100053.66;1795811;80;21520;-78
2020/12/12 01:37:25;;;;;;;22.57;13.63;;;;;;;-1.72;95.17;100051.86;1776026;78;21996;-78
2020/12/12 01:39:53;;;;;;;24.07;13.50;;;;;;;-1.74;95.26;100056.01;1797780;80;20934;-78
2020/12/12 01:42:21;;;;;;;20.37;13.03;;;;;;;-1.81;95.07;100046.87;1797050;78;21097;-77
2020/12/12 01:44:48;;;;;;;24.27;14.83;;;;;;;-1.90;95.20;100064.78;1796756;79;21135;-79
2020/12/12 01:47:17;;;;;;;26.27;14.90;;;;;;;-1.91;95.39;100061.77;1757666;81;21096;-78
2020/12/12 01:49:45;;;;;;;23.00;13.93;;;;;;;-1.92;95.42;100062.58;1730074;81;21793;-78
2020/12/12 01:52:13;;;;;;;25.27;15.77;;;;;;;-1.95;95.82;100066.27;1722377;81;21027;-78
2020/12/12 01:54:40;;;;;;;20.80;13.23;;;;;;;-1.98;95.93;100057.30;1693125;80;21490;-77
2020/12/12 01:57:09;;;;;;;24.80;14.57;;;;;;;-1.98;96.18;100062.77;1663323;81;21213;-77
2020/12/12 01:59:36;;;;;;;22.63;15.20;;;;;;;-1.98;96.52;100057.30;1753156;81;21140;-77
2020/12/12 02:02:06;;;;;;;25.93;15.27;;;;;;;-2.01;96.18;100050.84;1780967;80;21317;-77
2020/12/12 02:04:34;;;;;;;22.95;14.15;;;;;;;-1.98;96.13;100055.17;1788398;80;21140;-78
2020/12/12 02:07:02;;;;;;;30.97;16.10;;;;;;;-2.00;96.00;100055.09;1789434;79;21048;-76
2020/12/12 02:09:34;;;;;;;26.87;17.15;;;;;;;-1.98;96.15;100056.02;1789859;79;21045;-77
2020/12/12 02:12:02;;;;;;;27.73;15.63;;;;;;;-1.95;96.25;100060.34;1799873;78;21018;-78
2020/12/12 02:14:37;;;;;;;25.57;14.80;;;;;;;-1.95;95.80;100058.67;1751906;79;21400;-79
2020/12/12 02:17:06;;;;;;;27.97;16.53;;;;;;;-1.93;95.81;100053.27;1784951;79;21144;-78
2020/12/12 02:19:34;;;;;;;;;;;;;;;-1.92;95.54;100049.05;1792220;78;21173;-79
2020/12/12 02:22:06;;;;;;;19.33;12.23;;;;;;;-1.91;95.65;100049.09;1767110;80;20310;-78
2020/12/12 02:24:34;;;;;;;29.10;17.67;;;;;;;-1.85;95.77;100051.39;1785338;80;21197;-78
2020/12/12 02:27:03;;;;;;;24.07;14.63;;;;;;;-1.79;95.61;100057.95;1761500;79;21406;-78
2020/12/12 02:29:50;;;;;;;25.87;16.17;;;;;;;-1.75;94.86;100051.76;1761788;80;21073;-79
2020/12/12 02:32:19;;;;;;;27.40;15.83;;;;;;;-1.74;94.76;100053.47;1782862;80;21085;-77
2020/12/12 02:34:52;;;;;;;26.00;16.83;;;;;;;-1.76;93.81;100050.45;1758303;80;21061;-80
2020/12/12 02:37:20;;;;;;;23.63;14.13;;;;;;;-1.75;94.09;100050.49;1754804;80;21121;-79
2020/12/12 02:39:50;;;;;;;29.27;20.07;;;;;;;-1.76;92.88;100047.92;1751449;79;21229;-78
2020/12/12 02:42:18;;;;;;;23.30;14.77;;;;;;;-1.77;93.26;100048.70;1789464;79;21058;-78
2020/12/12 02:44:52;;;;;;;30.63;18.90;;;;;;;-1.79;93.29;100042.33;1789232;80;21129;-80
2020/12/12 02:47:21;;;;;;;28.63;17.07;;;;;;;-1.77;93.47;100043.22;1792404;78;21483;-78
2020/12/12 02:50:10;;;;;;;23.67;17.10;;;;;;;-1.74;92.84;100042.47;1790020;78;21053;-78
2020/12/12 02:52:46;;;;;;;32.37;18.33;;;;;;;-1.72;93.00;100037.06;1789624;78;21190;-78
2020/12/12 02:55:13;;;;;;;32.87;19.17;;;;;;;-1.68;92.95;100037.61;1787248;79;21113;-79
2020/12/12 02:57:41;;;;;;;25.40;17.30;;;;;;;-1.66;92.79;100034.73;1779047;80;21180;-78
2020/12/12 03:00:17;;;;;;;27.80;17.33;;;;;;;-1.67;92.41;100035.15;1771352;80;21058;-78
2020/12/12 03:02:45;;;;;;;28.07;15.93;;;;;;;-1.72;91.84;100034.52;1775487;80;21122;-77
2020/12/12 03:05:13;;;;;;;21.33;14.37;;;;;;;-1.78;91.53;100036.44;1772020;79;21246;-79
2020/12/12 03:07:41;;;;;;;26.00;16.23;;;;;;;-1.81;91.78;100027.86;1786430;79;21345;-79
2020/12/12 03:10:09;;;;;;;31.83;16.30;;;;;;;-1.79;91.97;100025.84;1785395;78;21010;-79
2020/12/12 03:12:38;;;;;;;23.00;14.73;;;;;;;-1.73;91.69;100032.81;1777402;77;21124;-78
2020/12/12 03:15:08;;;;;;;24.50;15.17;;;;;;;-1.83;90.41;100037.08;1780242;80;21108;-78
2020/12/12 03:17:36;;;;;;;25.00;15.68;;;;;;;-1.93;91.04;100035.52;1789715;78;21341;-79
2020/12/12 03:20:06;;;;;;;22.23;15.40;;;;;;;-1.97;91.04;100039.99;1782279;79;21133;-79
2020/12/12 03:22:35;;;;;;;24.10;15.07;;;;;;;-2.00;91.22;100043.69;1778082;78;21148;-77
2020/12/12 03:25:04;;;;;;;19.50;12.87;;;;;;;-2.01;90.91;100033.51;1776942;79;21125;-78
2020/12/12 03:27:31;;;;;;;23.43;14.20;;;;;;;-2.05;91.26;100033.81;1776546;79;21075;-78
2020/12/12 03:30:01;;;;;;;23.13;15.23;;;;;;;-2.08;90.91;100041.71;1787472;80;21219;-79
2020/12/12 03:32:30;;;;;;;25.10;15.95;;;;;;;-2.09;91.49;100038.70;1779507;79;21160;-80
2020/12/12 03:34:59;;;;;;;31.73;17.80;;;;;;;-2.06;91.23;100038.80;1789257;78;21149;-79
2020/12/12 03:37:26;;;;;;;24.97;16.70;;;;;;;-2.09;91.32;100040.85;1764196;80;21134;-80
2020/12/12 03:39:54;;;;;;;25.00;16.60;;;;;;;-2.05;91.52;100046.48;1789002;79;21176;-80
2020/12/12 03:42:24;;;;;;;23.00;14.27;;;;;;;-2.01;91.57;100044.91;1778436;79;21235;-80
2020/12/12 03:44:52;;;;;;;25.80;15.30;;;;;;;-1.95;91.45;100042.60;1782401;79;21069;-79
2020/12/12 03:47:22;;;;;;;22.87;12.97;;;;;;;-1.92;90.73;100051.17;1764387;78;21527;-80
2020/12/12 03:49:50;;;;;;;32.80;19.43;;;;;;;-1.94;90.58;100055.72;1756835;78;21026;-79
2020/12/12 03:52:19;;;;;;;25.60;16.33;;;;;;;-1.94;90.68;100048.98;1788071;80;21002;-82
2020/12/12 03:54:48;;;;;;;19.93;12.63;;;;;;;-2.00;90.36;100046.22;1756735;78;21337;-82
2020/12/12 04:00:36;;;;;;;20.23;13.47;;;;;;;-2.03;90.55;100039.77;1699525;81;21161;-83
2020/12/12 04:03:15;;;;;;;23.47;15.20;;;;;;;-2.03;90.54;100043.58;1712631;78;21252;-82
2020/12/12 04:09:14;;;;;;;23.93;15.20;;;;;;;-2.05;89.86;100049.42;1685958;80;21237;-85
2020/12/12 04:15:13;;;;;;;24.77;15.37;;;;;;;-2.18;90.44;100052.78;1690993;79;21027;-83
2020/12/12 04:17:46;;;;;;;22.23;13.40;;;;;;;-2.20;90.42;100052.25;1689710;82;21102;-84
2020/12/12 04:20:19;;;;;;;19.00;12.07;;;;;;;-2.20;90.42;100059.45;1693974;81;21108;-85
2020/12/12 04:22:54;;;;;;;20.40;13.20;;;;;;;-2.28;90.07;100049.86;1727467;79;21109;-85
2020/12/12 04:25:35;;;;;;;28.85;14.93;;;;;;;-2.47;90.73;100039.03;1728078;79;21037;-85
2020/12/12 04:28:05;;;;;;;23.85;12.80;;;;;;;-2.52;91.15;100038.39;1729195;79;21460;-85
2020/12/12 04:30:44;;;;;;;25.10;15.67;;;;;;;-2.50;91.60;100035.12;1707501;79;21107;-86
2020/12/12 04:33:28;;;;;;;23.83;13.67;;;;;;;-2.46;91.30;100038.62;1693268;79;21382;-76
2020/12/12 04:36:05;;;;;;;20.37;14.37;;;;;;;-2.43;91.23;100040.87;1736199;78;21410;-86
2020/12/12 04:38:36;;;;;;;18.20;11.83;;;;;;;-2.44;91.16;100039.15;1701779;79;21201;-85
2020/12/12 04:41:13;;;;;;;23.70;12.20;;;;;;;-2.51;90.11;100030.02;1691417;81;21125;-85
2020/12/12 04:44:44;;;;;;;18.37;11.80;;;;;;;-2.73;90.86;100036.78;1722556;81;21228;31
2020/12/12 04:50:44;;;;;;;25.23;12.33;;;;;;;-2.98;91.14;100028.63;1742678;79;21152;-85
2020/12/12 04:53:21;;;;;;;20.57;11.83;;;;;;;-2.98;91.60;100042.96;1634985;81;21120;-84
2020/12/12 04:56:05;;;;;;;19.73;13.10;;;;;;;-2.96;91.40;100040.95;1576942;85;21104;-84
2020/12/12 04:58:41;;;;;;;19.53;12.27;;;;;;;-2.94;91.28;100035.97;1589844;85;21176;-84
2020/12/12 05:01:13;;;;;;;28.43;14.07;;;;;;;-2.95;90.77;100024.10;1713406;79;21259;-83
2020/12/12 05:03:42;;;;;;;19.77;12.20;;;;;;;-3.01;90.67;100033.58;1729605;81;21378;-84
2020/12/12 05:09:22;;;;;;;20.88;12.90;;;;;;;-3.04;90.97;100025.00;1774453;77;21039;-83
2020/12/12 05:15:23;;;;;;;21.47;12.43;;;;;;;-2.91;89.99;100027.20;1722290;79;21100;-82
2020/12/12 05:21:08;;;;;;;21.67;11.50;;;;;;;-2.85;88.79;100024.50;1697478;81;21207;-86
2020/12/12 05:24:17;;;;;;;17.23;10.50;;;;;;;-2.88;87.61;100014.66;1570148;87;21326;31
2020/12/12 05:36:54;;;;;;;19.87;12.43;;;;;;;-3.02;86.43;100016.67;1729135;80;21143;-82
2020/12/12 05:39:26;;;;;;;15.20;9.60;;;;;;;-2.96;86.22;100022.38;1719968;79;21098;-80
2020/12/12 05:41:55;;;;;;;20.97;12.33;;;;;;;-2.95;86.01;100005.97;1697083;81;21200;-82
2020/12/12 05:44:24;;;;;;;19.63;10.40;;;;;;;-2.97;85.77;100013.94;1681066;81;21207;-82
2020/12/12 05:47:00;;;;;;;17.23;11.17;;;;;;;-2.98;85.53;100022.30;1667476;81;21214;-84
2020/12/12 05:49:35;;;;;;;17.87;10.77;;;;;;;-3.00;85.56;100015.08;1684752;81;21105;-84
2020/12/12 05:52:44;;;;;;;17.67;11.40;;;;;;;-2.98;85.90;100013.45;1698797;79;21185;-85
2020/12/12 05:55:53;;;;;;;15.27;10.70;;;;;;;-2.93;85.67;100013.64;1723956;79;21378;-85
2020/12/12 06:36:58;;;;;;;21.83;14.90;;;;;;;-3.04;84.54;100018.30;1724038;78;21110;-83
2020/12/12 06:39:55;;;;;;;22.10;13.50;;;;;;;-3.16;85.26;100010.22;1716402;80;21126;-83
2020/12/12 06:42:50;;;;;;;20.17;13.30;;;;;;;-3.19;85.58;100016.42;1648818;81;21294;-84
2020/12/12 07:29:21;;;;;;;23.93;15.17;;;;;;;-2.99;87.67;99985.16;1723248;78;21056;-81
2020/12/12 07:35:07;;;;;;;31.53;16.00;;;;;;;-2.83;86.84;99979.88;1755882;78;21467;-81
2020/12/12 07:37:37;;;;;;;24.73;15.23;;;;;;;-2.88;87.18;99977.96;1699352;81;21121;-81
2020/12/12 07:40:07;;;;;;;19.77;13.00;;;;;;;-2.85;87.37;99971.75;1679575;82;21143;-81
2020/12/12 07:42:37;;;;;;;23.20;14.10;;;;;;;-2.85;87.19;99975.55;1688351;81;21111;-81
2020/12/12 07:57:48;;;;;;;26.50;14.57;;;;;;;-2.71;86.85;99974.83;1712353;79;21108;-83
2020/12/12 08:10:38;;;;;;;27.90;16.13;;;;;;;-2.61;86.89;99971.83;1715472;80;21057;-83
2020/12/12 08:16:22;;;;;;;22.53;14.97;;;;;;;-2.49;86.82;99975.19;1689704;83;21077;-82
2020/12/12 08:19:10;;;;;;;24.47;15.83;;;;;;;-2.47;86.12;99983.31;1715422;78;21710;31
2020/12/12 08:31:28;;;;;;;23.97;13.93;;;;;;;-2.59;86.55;99972.72;1691728;81;21241;-83
2020/12/12 08:37:36;;;;;;;22.13;15.27;;;;;;;-2.62;87.02;99972.23;1681270;80;21218;-81
2020/12/12 08:40:33;;;;;;;24.60;13.97;;;;;;;-2.72;87.47;99969.28;1678149;80;21096;-81
2020/12/12 09:02:23;;;;;;;23.73;11.37;;;;;;;-2.46;89.11;99953.77;1692657;79;21144;-83
2020/12/12 09:05:13;;;;;;;24.70;14.00;;;;;;;-2.52;89.63;99956.94;1639164;82;21889;-82
2020/12/12 09:08:22;;;;;;;25.50;13.03;;;;;;;-2.54;90.05;99954.77;1694059;80;22397;31
2020/12/12 09:11:21;;;;;;;24.90;15.00;;;;;;;-2.60;90.09;99951.61;1685521;81;21067;-82
2020/12/12 09:14:17;;;;;;;22.43;12.57;;;;;;;-2.68;90.64;99951.75;1687963;81;21155;-83
2020/12/12 09:30:24;;;;;;;23.53;12.53;;;;;;;-2.70;91.13;99939.42;1647213;81;21232;-81
2020/12/12 09:33:14;;;;;;;27.40;13.07;;;;;;;-2.73;91.86;99942.25;1648879;85;21031;-81
2020/12/12 09:35:42;;;;;;;21.00;11.80;;;;;;;-2.70;92.23;99940.69;1632186;84;21414;-80
2020/12/12 09:38:11;;;;;;;24.27;12.87;;;;;;;-2.62;92.18;99935.89;1648504;85;21582;-81
2020/12/12 09:40:40;;;;;;;26.27;11.13;;;;;;;-2.60;91.93;99930.08;1616447;85;21107;-81
2020/12/12 09:43:15;;;;;;;20.37;12.90;;;;;;;-2.63;91.92;99935.03;1647366;83;21063;-82
2020/12/12 09:46:19;;;;;;;24.30;14.83;;;;;;;-2.61;92.51;99927.51;1674298;80;21247;31
2020/12/12 10:08:33;;;;;;;33.17;20.97;;;;;;;-2.07;88.57;99891.35;1601672;85;20251;-83
2020/12/12 10:11:29;;;;;;;26.83;18.03;;;;;;;-2.12;88.95;99897.55;1605477;87;21299;-81
2020/12/12 10:14:29;;;;;;;32.03;19.13;;;;;;;-2.08;88.11;99894.70;1617996;83;21204;-84
2020/12/12 10:46:54;;;;;;;27.77;19.53;;;;;;;-2.31;85.89;99870.72;1712100;78;21155;-82
2020/12/12 10:50:08;;;;;;;36.50;21.10;;;;;;;-2.28;86.11;99878.84;1700885;82;21045;-83
2020/12/12 10:52:59;;;;;;;25.97;19.00;;;;;;;-2.15;86.13;99874.22;1707236;82;21374;-84
2020/12/12 10:55:35;;;;;;;24.90;16.13;;;;;;;-2.08;85.87;99868.95;1722972;81;21086;-83
2020/12/12 10:58:13;;;;;;;32.13;19.43;;;;;;;-2.04;85.00;99867.38;1742711;79;21502;-82
2020/12/12 11:00:59;;;;;;;30.87;19.43;;;;;;;-2.09;84.65;99867.61;1754458;80;21109;-83
2020/12/12 11:10:22;;;;;;;27.97;18.17;;;;;;;-2.19;84.56;99867.34;1642566;83;21088;-80
2020/12/12 11:12:51;;;;;;;25.67;17.00;;;;;;;-2.25;84.65;99856.99;1689070;81;21055;-79
2020/12/12 11:15:25;;;;;;;29.73;19.67;;;;;;;-2.23;84.74;99859.16;1703979;80;21037;-80
2020/12/12 11:17:56;;;;;;;33.00;20.07;;;;;;;-2.20;85.11;99860.94;1693896;83;21089;-79
2020/12/12 11:20:25;;;;;;;26.13;18.43;;;;;;;-2.12;85.28;99857.00;1696174;83;21429;-81
2020/12/12 11:22:55;;;;;;;41.50;28.50;;;;;;;-2.00;85.24;99859.05;1685511;82;21097;-79
2020/12/12 11:25:23;;;;;;;27.82;18.07;;;;;;;-1.96;85.07;99869.36;1672696;83;21218;-80
2020/12/12 11:27:54;;;;;;;32.07;19.87;;;;;;;-1.95;84.05;99872.75;1689357;83;21101;-80
2020/12/12 11:30:23;;;;;;;38.53;21.17;;;;;;;-2.00;84.40;99875.53;1692602;83;21109;-79
2020/12/12 11:32:53;;;;;;;27.43;18.70;;;;;;;-1.97;84.72;99877.75;1692528;83;21283;-78
2020/12/12 11:35:39;;;;;;;25.53;15.87;;;;;;;-1.93;83.92;99878.34;1688585;85;21054;-78
2020/12/12 11:38:15;;;;;;;32.83;20.50;;;;;;;-1.93;83.92;99878.34;1682034;83;21798;-79
2020/12/12 13:06:38;;;;;;;28.33;18.63;;;;;;;-2.21;82.85;99884.15;1733514;78;21258;-79
2020/12/12 13:19:46;;;;;;;31.77;20.07;;;;;;;-2.03;82.98;99877.55;1650596;80;21273;-77
2020/12/12 13:22:24;;;;;;;29.33;16.90;;;;;;;-2.02;83.00;99889.84;1804919;77;22640;-77
2020/12/12 13:31:07;;;;;;;30.67;20.00;;;;;;;-2.28;83.69;99902.50;1706996;77;21062;-79
2020/12/12 13:33:38;;;;;;;37.23;23.02;;;;;;;-2.26;83.82;99898.32;1730689;79;21042;-78
2020/12/12 13:36:08;;;;;;;33.80;18.75;;;;;;;-2.21;84.02;99893.43;1722872;81;21109;-79
2020/12/12 13:38:40;;;;;;;29.70;19.30;;;;;;;-2.20;83.96;99890.08;1693857;79;22463;-80
2020/12/12 13:41:09;;;;;;;31.83;19.07;;;;;;;-2.17;84.09;99888.91;1659923;82;21494;-79
2020/12/12 13:43:37;;;;;;;27.53;16.23;;;;;;;-2.18;83.66;99888.47;1737371;81;21041;-79
2020/12/12 13:46:06;;;;;;;30.30;18.23;;;;;;;-2.23;83.78;99900.96;1751851;79;21057;-81
2020/12/12 13:48:57;;;;;;;34.03;20.57;;;;;;;-2.29;83.73;99908.38;1746801;79;21101;-80
2020/12/12 13:51:26;;;;;;;29.57;18.77;;;;;;;-2.37;83.94;99909.36;1708458;83;21027;-79
2020/12/12 14:24:30;;;;;;;36.70;21.17;;;;;;;-2.41;85.89;99925.68;1762390;79;22075;-80
2020/12/12 14:30:43;;;;;;;33.90;23.45;;;;;;;-2.31;85.88;99912.52;1801395;77;28469;-80
2020/12/12 14:33:19;;;;;;;30.73;20.53;;;;;;;-2.34;85.94;99903.95;1705315;83;20962;-80
2020/12/12 14:35:49;;;;;;;;;;;;;;;-2.33;85.87;99914.54;1749380;80;21192;-80
2020/12/12 14:38:18;;;;;;;25.67;16.80;;;;;;;-2.35;86.23;99915.77;1756314;81;20118;-81
2020/12/12 14:40:47;;;;;;;43.60;29.27;;;;;;;-2.35;86.22;99913.23;1737489;81;21050;-81
2020/12/12 14:43:16;;;;;;;31.43;19.20;;;;;;;-2.40;86.33;99899.53;1731399;81;21050;-81
2020/12/12 14:45:45;;;;;;;34.30;20.83;;;;;;;-2.40;86.59;99910.93;1744730;79;21125;-81
2020/12/12 14:48:27;;;;;;;;;;;;;;;;;;;;;
2020/12/12 15:01:32;;;;;;;44.53;23.10;;;;;;;-2.34;87.70;99923.81;1803503;77;22500;-81
2020/12/12 15:04:04;;;;;;;38.03;24.10;;;;;;;-2.47;87.66;99918.72;1773075;79;21050;-82
2020/12/12 15:06:33;;;;;;;44.13;24.20;;;;;;;-2.54;88.21;99920.99;1757452;78;21331;-82
2020/12/12 15:09:02;;;;;;;41.40;24.00;;;;;;;-2.55;88.52;99922.66;1777395;78;21034;-82
2020/12/12 15:11:31;;;;;;;40.73;25.53;;;;;;;-2.54;88.94;99926.91;1790808;78;21117;-81
2020/12/12 15:14:10;;;;;;;30.15;18.50;;;;;;;-2.47;89.23;99921.25;1809246;77;20955;-82
2020/12/12 15:16:40;;;;;;;42.00;24.90;;;;;;;-2.41;89.13;99918.94;1761210;80;21401;-81
2020/12/12 15:19:09;;;;;;;40.83;23.07;;;;;;;-2.40;89.32;99919.80;1814721;78;22306;-81
2020/12/12 15:21:38;;;;;;;37.97;21.43;;;;;;;-2.41;89.30;99918.94;1814194;78;21041;-81
2020/12/12 15:24:11;;;;;;;31.97;17.10;;;;;;;-2.45;89.45;99925.13;1816973;78;20986;-79
2020/12/12 15:26:40;;;;;;;34.67;17.37;;;;;;;-2.49;90.14;99927.06;1777024;78;26739;-82
2020/12/12 15:29:18;;;;;;;43.37;23.23;;;;;;;-2.52;90.66;99926.95;1790200;77;22703;-80
2020/12/12 15:31:48;;;;;;;31.73;18.23;;;;;;;-2.65;90.85;99931.98;1754214;81;20962;-81
2020/12/12 15:34:18;;;;;;;37.63;21.97;;;;;;;-2.69;91.33;99923.41;1708694;81;21165;-79
2020/12/12 15:36:47;;;;;;;28.80;15.73;;;;;;;-2.74;91.87;99921.55;1750558;81;20968;-80
2020/12/12 15:39:15;;;;;;;35.60;19.43;;;;;;;-2.70;92.85;99927.17;1741739;81;20945;-81
2020/12/12 15:44:32;;;;;;;34.37;21.53;;;;;;;-2.69;93.02;99913.28;1750844;79;22581;-81
2020/12/12 15:47:02;;;;;;;34.30;18.53;;;;;;;-2.71;93.50;99917.45;1710913;82;21097;-81
2020/12/12 15:49:30;;;;;;;35.70;22.27;;;;;;;-2.70;94.44;99913.24;1723466;80;21365;-80
2020/12/12 15:51:58;;;;;;;39.60;21.93;;;;;;;-2.69;93.86;99916.22;1712116;82;21165;-80
2020/12/12 15:54:29;;;;;;;40.17;25.17;;;;;;;-2.74;94.70;99916.07;1699782;82;21050;-79
2020/12/12 15:56:56;;;;;;;29.77;18.45;;;;;;;-2.77;94.84;99916.36;1733411;82;21046;-80
2020/12/12 15:59:26;;;;;;;43.90;25.40;;;;;;;-2.74;95.38;99917.74;1733049;80;21080;-81
2020/12/12 16:01:58;;;;;;;24.40;13.13;;;;;;;-2.71;95.52;99923.78;1724119;78;21215;-79
2020/12/12 16:04:37;;;;;;;41.43;23.17;;;;;;;-2.68;96.40;99915.41;1752817;80;21011;-80
2020/12/12 16:07:07;;;;;;;38.97;23.90;;;;;;;-2.69;95.69;99905.69;1744583;81;20915;-79
2020/12/12 16:09:41;;;;;;;40.73;25.03;;;;;;;-2.67;95.98;99901.55;1752711;78;21114;-79
2020/12/12 16:12:21;;;;;;;37.45;23.12;;;;;;;-2.62;96.09;99904.23;1762813;78;21278;-79
2020/12/12 16:14:49;;;;;;;40.40;25.80;;;;;;;-2.59;96.26;99900.55;1735398;80;21208;-79
2020/12/12 16:17:18;;;;;;;34.87;21.20;;;;;;;-2.53;96.48;99904.56;1695822;83;21096;-78
2020/12/12 16:19:46;;;;;;;40.57;24.73;;;;;;;-2.47;96.46;99911.53;1715414;80;21172;-79
2020/12/12 16:22:21;;;;;;;35.60;23.03;;;;;;;-2.41;96.45;99911.75;1700256;80;21224;-80
2020/12/12 16:25:00;;;;;;;31.50;19.33;;;;;;;-2.37;96.26;99914.43;1687466;80;21149;-79
2020/12/12 16:27:56;;;;;;;40.97;24.17;;;;;;;-2.36;96.07;99916.14;1701729;84;21240;-80
2020/12/12 16:30:26;;;;;;;40.07;24.27;;;;;;;-2.36;96.09;99914.88;1712555;84;21137;-80
2020/12/12 16:32:55;;;;;;;44.40;26.07;;;;;;;-2.35;96.06;99910.70;1677376;85;21157;-80
2020/12/12 16:35:28;;;;;;;33.53;18.87;;;;;;;-2.34;96.08;99908.61;1656137;84;21216;-78
2020/12/12 16:38:04;;;;;;;31.42;20.15;;;;;;;-2.29;96.11;99913.83;1689718;82;21154;-79
2020/12/12 16:40:34;;;;;;;35.93;23.23;;;;;;;-2.33;95.54;99917.93;1677572;85;21542;-79
2020/12/12 16:43:11;;;;;;;38.93;24.20;;;;;;;-2.40;95.95;99915.59;1648755;86;21078;-79
2020/12/12 16:45:43;;;;;;;46.17;25.17;;;;;;;-2.45;96.31;99918.38;1711714;82;21147;-80
2020/12/12 16:48:12;;;;;;;42.63;24.20;;;;;;;-2.45;96.40;99917.52;1712626;83;21065;-79
2020/12/12 16:50:40;;;;;;;38.77;22.50;;;;;;;-2.42;96.55;99922.29;1707924;82;21089;-79
2020/12/12 16:53:09;;;;;;;36.23;22.13;;;;;;;-2.41;96.78;99922.73;1683061;84;21226;-80
2020/12/12 16:55:37;;;;;;;36.83;23.50;;;;;;;-2.39;96.84;99919.87;1692402;82;21196;-81
2020/12/12 16:58:07;;;;;;;38.50;21.97;;;;;;;-2.38;96.81;99930.45;1694365;80;21109;-79
2020/12/12 17:00:37;;;;;;;39.07;22.43;;;;;;;-2.36;96.88;99931.34;1711672;81;21140;-80
2020/12/12 17:03:07;;;;;;;37.53;23.47;;;;;;;-2.34;96.79;99928.02;1691187;81;21133;-77
2020/12/12 17:05:37;;;;;;;35.90;21.80;;;;;;;-2.29;97.14;99929.92;1685819;84;21210;-80
2020/12/12 17:08:06;;;;;;;39.07;23.30;;;;;;;-2.29;96.37;99927.77;1714356;83;21617;-79
2020/12/12 17:10:38;;;;;;;39.17;24.23;;;;;;;-2.36;96.68;99932.61;1696580;83;21173;-78
2020/12/12 17:13:07;;;;;;;38.17;24.77;;;;;;;-2.36;97.14;99927.55;1711818;83;21157;-80
2020/12/12 17:15:38;;;;;;;40.77;25.10;;;;;;;-2.29;97.35;99924.85;1673800;84;21070;-79
2020/12/12 17:18:07;;;;;;;40.90;25.67;;;;;;;-2.20;97.38;99928.94;1701439;82;21217;-80
2020/12/12 17:20:41;;;;;;;40.40;22.17;;;;;;;-2.14;97.17;99929.56;1683206;82;21056;-81
2020/12/12 17:23:11;;;;;;;35.73;22.30;;;;;;;-2.14;96.66;99928.30;1649254;85;21089;-80
2020/12/12 17:25:40;;;;;;;39.10;22.47;;;;;;;-2.17;96.86;99923.13;1665982;84;21086;-80
2020/12/12 17:28:09;;;;;;;39.80;21.93;;;;;;;-2.16;96.98;99924.84;1689155;84;21058;-80
2020/12/12 17:30:45;;;;;;;38.30;23.80;;;;;;;-2.13;96.90;99932.55;1654812;84;21187;-81
2020/12/12 17:33:14;;;;;;;36.50;22.30;;;;;;;-2.14;96.75;99932.95;1722648;82;21200;-82
2020/12/12 17:35:50;;;;;;;43.57;25.03;;;;;;;-2.17;96.72;99933.27;1712825;83;21180;-81
2020/12/12 17:38:45;;;;;;;39.43;23.93;;;;;;;-2.17;97.19;99925.25;1708578;82;21117;-81
2020/12/12 17:41:17;;;;;;;44.65;25.62;;;;;;;-2.10;97.16;99929.27;1656494;82;21172;-80
2020/12/12 17:44:09;;;;;;;44.85;24.75;;;;;;;-2.10;97.17;99927.59;1707088;83;21375;-80
2020/12/12 17:46:40;;;;;;;32.57;20.60;;;;;;;-2.12;97.22;99921.62;1693844;82;21093;-81
2020/12/12 17:49:12;;;;;;;35.33;18.70;;;;;;;-2.15;97.52;99916.45;1735598;82;21034;-81
2020/12/12 17:51:41;;;;;;;42.70;24.33;;;;;;;-2.20;97.64;99923.88;1684851;80;21517;-79
2020/12/12 17:54:09;;;;;;;39.30;22.53;;;;;;;-2.28;97.55;99924.44;1621703;87;21130;-79
2020/12/12 17:56:46;;;;;;;42.07;23.87;;;;;;;-2.28;98.21;99921.91;1650118;85;21371;-80
2020/12/12 18:02:13;;;;;;;43.53;23.73;;;;;;;-2.19;98.69;99926.00;1597077;88;21023;-81
2020/12/12 18:04:42;;;;;;;37.93;22.47;;;;;;;-2.15;98.33;99929.12;1595618;88;21081;-80
2020/12/12 18:07:12;;;;;;;38.97;23.47;;;;;;;-2.14;98.42;99929.16;1580818;89;21140;-80
2020/12/12 18:09:40;;;;;;;36.23;22.40;;;;;;;-2.14;98.48;99930.83;1603652;88;21374;-82
2020/12/12 18:12:38;;;;;;;37.00;22.07;;;;;;;-2.14;98.43;99930.83;1577027;89;21222;-80
2020/12/12 18:15:07;;;;;;;43.53;21.57;;;;;;;-2.19;98.56;99932.33;1587139;88;21208;-80
2020/12/12 18:17:49;;;;;;;42.30;23.30;;;;;;;-2.17;98.74;99937.06;1603811;88;21054;-81
2020/12/12 18:20:21;;;;;;;34.90;20.10;;;;;;;-2.19;98.67;99942.47;1590163;88;21169;-80
2020/12/12 18:22:52;;;;;;;39.07;22.47;;;;;;;-2.27;99.16;99931.22;1600627;88;21340;-80